createdAt,value
2022-10-09T00:01:12.272Z,48.15
2022-10-09T00:03:38.665Z,46.12
2022-10-09T00:06:06.292Z,46.17
2022-10-09T00:08:34.876Z,46.29
2022-10-09T00:11:01.194Z,46.87
2022-10-09T00:13:27.700Z,46.10
2022-10-09T00:15:54.155Z,45.66
2022-10-09T00:18:20.426Z,44.86
2022-10-09T00:20:47.252Z,46.52
2022-10-09T00:23:13.505Z,46.09
2022-10-09T00:25:39.800Z,46.73
2022-10-09T00:28:06.387Z,45.57
2022-10-09T00:30:32.790Z,48.34
2022-10-09T00:32:59.216Z,48.47
2022-10-09T00:35:25.678Z,48.08
2022-10-09T00:37:52.085Z,48.91
2022-10-09T00:40:18.605Z,48.15
2022-10-09T00:42:47.546Z,48.13
2022-10-09T00:45:14.035Z,46.63
2022-10-09T00:47:40.501Z,46.31
2022-10-09T00:50:07.178Z,47.73
2022-10-09T00:52:33.507Z,48.35
2022-10-09T00:55:00.227Z,48.47
2022-10-09T00:57:26.822Z,45.89
2022-10-09T00:59:53.084Z,47.45
2022-10-09T01:02:19.885Z,49.65
2022-10-09T01:04:46.510Z,48.97
2022-10-09T01:07:12.791Z,49.51
2022-10-09T01:09:39.076Z,48.24
2022-10-09T01:12:05.508Z,48.22
2022-10-09T01:14:31.770Z,46.17
2022-10-09T01:16:58.087Z,44.15
2022-10-09T01:19:24.558Z,44.52
2022-10-09T01:21:50.804Z,44.04
2022-10-09T01:24:17.060Z,43.33
2022-10-09T01:26:43.498Z,43.43
2022-10-09T01:29:09.765Z,43.74
2022-10-09T01:31:36.134Z,44.22
2022-10-09T01:34:02.659Z,45.85
2022-10-09T01:36:28.978Z,46.31
2022-10-09T01:38:55.250Z,46.00
2022-10-09T01:41:21.634Z,44.41
2022-10-09T01:43:47.898Z,46.68
2022-10-09T01:46:14.395Z,46.35
2022-10-09T01:48:41.404Z,45.33
2022-10-09T01:51:07.789Z,45.80
2022-10-09T01:53:34.047Z,46.16
2022-10-09T01:56:00.773Z,46.19
2022-10-09T01:58:27.047Z,45.63
2022-10-09T02:00:53.311Z,47.38
2022-10-09T02:03:20.142Z,46.72
2022-10-09T02:05:46.538Z,46.43
2022-10-09T02:08:12.998Z,46.44
2022-10-09T02:10:39.266Z,46.90
2022-10-09T02:13:05.514Z,46.96
2022-10-09T02:15:31.832Z,46.52
2022-10-09T02:17:58.597Z,48.08
2022-10-09T02:20:24.880Z,48.20
2022-10-09T02:22:51.497Z,47.80
2022-10-09T02:25:18.053Z,47.33
2022-10-09T02:27:44.373Z,47.00
2022-10-09T02:30:12.844Z,46.30
2022-10-09T02:32:39.418Z,48.71
2022-10-09T02:35:05.691Z,46.57
2022-10-09T02:37:32.272Z,46.73
2022-10-09T02:39:58.582Z,46.76
2022-10-09T02:42:24.896Z,46.25
2022-10-09T02:44:51.205Z,46.25
2022-10-09T02:47:17.937Z,47.35
2022-10-09T02:49:44.320Z,46.74
2022-10-09T02:52:10.597Z,46.84
2022-10-09T02:54:37.139Z,45.81
2022-10-09T02:57:03.479Z,45.45
2022-10-09T02:59:29.745Z,45.71
2022-10-09T03:01:56.106Z,46.79
2022-10-09T03:04:22.666Z,45.80
2022-10-09T03:06:49.021Z,46.36
2022-10-09T03:09:15.496Z,46.73
2022-10-09T03:11:41.844Z,45.86
2022-10-09T03:14:08.138Z,44.70
2022-10-09T03:16:34.846Z,43.98
2022-10-09T03:19:01.154Z,46.25
2022-10-09T03:21:27.492Z,46.50
2022-10-09T03:23:54.178Z,47.13
2022-10-09T03:26:20.528Z,47.61
2022-10-09T03:28:49.265Z,47.83
2022-10-09T03:31:33.397Z,47.84
2022-10-09T03:34:02.063Z,47.00
2022-10-09T03:36:28.409Z,46.99
2022-10-09T03:38:54.749Z,47.34
2022-10-09T03:41:21.221Z,48.38
2022-10-09T03:43:47.593Z,47.89
2022-10-09T03:46:14.931Z,46.46
2022-10-09T03:48:41.634Z,45.87
2022-10-09T03:51:10.707Z,46.83
2022-10-09T03:53:37.004Z,45.47
2022-10-09T03:56:03.367Z,45.84
2022-10-09T03:58:29.939Z,46.79
2022-10-09T04:00:56.486Z,49.01
2022-10-09T04:03:22.855Z,48.23
2022-10-09T04:05:49.191Z,47.50
2022-10-09T04:08:15.470Z,46.78
2022-10-09T04:10:41.733Z,46.88
2022-10-09T04:13:08.239Z,46.15
2022-10-09T04:15:34.609Z,48.23
2022-10-09T04:18:00.859Z,47.74
2022-10-09T04:20:27.356Z,47.75
2022-10-09T04:22:53.702Z,47.72
2022-10-09T04:25:19.996Z,47.00
2022-10-09T04:27:46.777Z,47.25
2022-10-09T04:30:13.052Z,49.66
2022-10-09T04:32:39.291Z,48.09
2022-10-09T04:35:05.952Z,47.16
2022-10-09T04:37:32.231Z,46.90
2022-10-09T04:39:58.491Z,47.66
2022-10-09T04:42:24.848Z,47.28
2022-10-09T04:44:53.292Z,47.71
2022-10-09T04:47:19.560Z,47.49
2022-10-09T04:49:46.343Z,46.20
2022-10-09T04:52:12.747Z,46.29
2022-10-09T04:54:39.253Z,47.12
2022-10-09T04:57:05.995Z,47.07
2022-10-09T04:59:32.525Z,49.20
2022-10-09T05:01:59.020Z,49.66
2022-10-09T05:04:25.627Z,50.29
2022-10-09T05:06:51.892Z,49.34
2022-10-09T05:09:18.261Z,50.41
2022-10-09T05:11:44.745Z,49.93
2022-10-09T05:14:11.305Z,48.21
2022-10-09T05:17:01.081Z,48.41
2022-10-09T05:19:24.080Z,47.37
2022-10-09T05:21:50.396Z,47.17
2022-10-09T05:24:16.757Z,48.76
2022-10-09T05:26:43.458Z,49.90
2022-10-09T05:29:09.760Z,49.82
2022-10-09T05:31:36.064Z,48.45
2022-10-09T05:34:02.528Z,48.08
2022-10-09T05:36:28.882Z,48.55
2022-10-09T05:38:55.303Z,47.99
2022-10-09T05:41:21.601Z,47.83
2022-10-09T05:43:47.874Z,47.87
2022-10-09T05:46:14.197Z,48.43
2022-10-09T05:48:41.501Z,47.31
2022-10-09T05:51:07.997Z,47.68
2022-10-09T05:53:34.374Z,47.60
2022-10-09T05:56:03.673Z,47.80
2022-10-09T05:58:30.347Z,48.31
2022-10-09T06:00:56.645Z,46.65
2022-10-09T06:03:22.963Z,46.72
2022-10-09T06:05:49.396Z,46.87
2022-10-09T06:08:15.840Z,48.61
2022-10-09T06:10:42.171Z,46.99
2022-10-09T06:13:08.430Z,46.95
2022-10-09T06:15:34.756Z,47.14
2022-10-09T06:18:01.150Z,46.56
2022-10-09T06:20:27.398Z,46.56
2022-10-09T06:22:53.902Z,46.64
2022-10-09T06:25:20.283Z,46.87
2022-10-09T06:27:46.641Z,47.57
2022-10-09T06:30:12.983Z,49.44
2022-10-09T06:32:40.327Z,47.32
2022-10-09T06:35:06.620Z,47.09
2022-10-09T06:37:33.193Z,47.51
2022-10-09T06:39:59.835Z,47.92
2022-10-09T06:42:26.779Z,46.80
2022-10-09T06:44:53.119Z,46.61
2022-10-09T06:47:19.958Z,48.17
2022-10-09T06:49:46.353Z,46.92
2022-10-09T06:52:13.685Z,47.40
2022-10-09T06:54:41.072Z,45.86
2022-10-09T06:57:07.299Z,46.94
2022-10-09T06:59:33.579Z,46.64
2022-10-09T07:02:00.795Z,46.36
2022-10-09T07:04:27.143Z,45.22
2022-10-09T07:06:53.429Z,45.30
2022-10-09T07:09:19.829Z,42.82
2022-10-09T07:11:46.139Z,42.84
2022-10-09T07:14:12.558Z,43.87
2022-10-09T07:16:39.170Z,43.55
2022-10-09T07:19:06.467Z,41.97
2022-10-09T07:21:32.768Z,42.39
2022-10-09T07:24:02.158Z,43.48
2022-10-09T07:26:28.624Z,43.21
2022-10-09T07:28:57.176Z,43.07
2022-10-09T07:31:23.786Z,43.33
2022-10-09T07:33:50.472Z,43.60
2022-10-09T07:36:16.831Z,43.34
2022-10-09T07:38:43.315Z,43.34
2022-10-09T07:41:09.762Z,42.95
2022-10-09T07:43:37.571Z,43.08
2022-10-09T07:46:08.443Z,42.55
2022-10-09T07:48:34.839Z,42.78
2022-10-09T07:51:01.084Z,41.77
2022-10-09T07:53:29.027Z,42.15
2022-10-09T07:55:58.018Z,43.38
2022-10-09T07:58:24.367Z,42.56
2022-10-09T08:00:50.731Z,42.83
2022-10-09T08:03:17.286Z,43.80
2022-10-09T08:05:43.548Z,42.74
2022-10-09T08:08:09.993Z,42.58
2022-10-09T08:10:36.363Z,42.49
2022-10-09T08:13:02.658Z,43.37
2022-10-09T08:15:29.922Z,41.94
2022-10-09T08:17:56.300Z,44.12
2022-10-09T08:20:23.767Z,43.69
2022-10-09T08:22:54.454Z,43.17
2022-10-09T08:25:21.051Z,42.34
2022-10-09T08:27:47.709Z,44.16
2022-10-09T08:30:15.965Z,44.33
2022-10-09T08:32:42.760Z,42.88
2022-10-09T08:35:09.499Z,43.24
2022-10-09T08:37:36.556Z,43.51
2022-10-09T08:40:03.148Z,44.05
2022-10-09T08:42:29.572Z,42.95
2022-10-09T08:44:56.622Z,42.65
2022-10-09T08:47:23.076Z,42.58
2022-10-09T08:49:49.601Z,41.70
2022-10-09T08:52:16.230Z,42.33
2022-10-09T08:54:43.132Z,42.29
2022-10-09T08:57:09.563Z,41.48
2022-10-09T08:59:36.252Z,40.90
2022-10-09T09:02:02.801Z,41.10
2022-10-09T09:04:29.259Z,43.06
2022-10-09T09:06:55.664Z,42.50
2022-10-09T09:09:22.217Z,41.62
2022-10-09T09:11:48.476Z,40.32
2022-10-09T09:14:14.883Z,41.13
2022-10-09T09:16:41.176Z,40.66
2022-10-09T09:19:07.517Z,40.69
2022-10-09T09:21:34.387Z,42.61
2022-10-09T09:24:00.689Z,42.83
2022-10-09T09:26:27.163Z,43.77
2022-10-09T09:28:53.852Z,42.27
2022-10-09T09:31:20.247Z,42.32
2022-10-09T09:33:46.668Z,42.23
2022-10-09T09:36:13.435Z,40.99
2022-10-09T09:38:54.757Z,39.79
2022-10-09T09:41:26.329Z,40.45
2022-10-09T09:43:52.634Z,40.58
2022-10-09T09:46:20.001Z,40.40
2022-10-09T09:48:46.521Z,39.80
2022-10-09T09:51:29.337Z,39.96
2022-10-09T09:53:56.188Z,39.85
2022-10-09T09:56:22.469Z,40.35
2022-10-09T09:58:48.794Z,40.39
2022-10-09T10:01:15.409Z,39.19
2022-10-09T10:03:41.820Z,39.21
2022-10-09T10:06:08.135Z,39.62
2022-10-09T10:08:34.991Z,38.17
2022-10-09T10:11:01.726Z,37.78
2022-10-09T10:13:28.010Z,38.56
2022-10-09T10:15:54.919Z,39.07
2022-10-09T10:18:21.331Z,36.50
2022-10-09T10:20:47.864Z,37.80
2022-10-09T10:23:14.250Z,38.50
2022-10-09T10:25:40.540Z,38.91
2022-10-09T10:28:06.940Z,38.51
2022-10-09T10:30:33.353Z,37.83
2022-10-09T10:32:59.634Z,37.54
2022-10-09T10:35:25.892Z,37.53
2022-10-09T10:37:52.600Z,37.44
2022-10-09T10:40:21.274Z,37.52
2022-10-09T10:42:47.589Z,38.60
2022-10-09T10:45:14.357Z,38.43
2022-10-09T10:47:40.620Z,38.81
2022-10-09T10:50:06.939Z,38.30
2022-10-09T10:52:33.580Z,38.85
2022-10-09T10:54:59.982Z,38.18
2022-10-09T10:57:26.295Z,37.08
2022-10-09T10:59:53.218Z,36.88
2022-10-09T11:02:19.511Z,36.86
2022-10-09T11:04:45.804Z,36.39
2022-10-09T11:07:12.361Z,37.00
2022-10-09T11:09:38.626Z,37.76
2022-10-09T11:12:05.987Z,39.32
2022-10-09T11:14:32.367Z,38.48
2022-10-09T11:16:58.764Z,38.30
2022-10-09T11:19:25.377Z,37.46
2022-10-09T11:21:51.782Z,36.50
2022-10-09T11:24:18.082Z,36.21
2022-10-09T11:26:44.678Z,36.55
2022-10-09T11:29:11.335Z,38.35
2022-10-09T11:31:37.749Z,37.99
2022-10-09T11:34:06.520Z,38.55
2022-10-09T11:36:32.960Z,37.55
2022-10-09T11:38:59.539Z,37.78
2022-10-09T11:41:25.839Z,37.47
2022-10-09T11:43:52.267Z,36.84
2022-10-09T11:46:18.668Z,36.72
2022-10-09T11:48:45.044Z,36.83
2022-10-09T11:51:11.472Z,37.76
2022-10-09T11:53:37.814Z,36.33
2022-10-09T11:56:04.155Z,36.25
2022-10-09T11:58:31.185Z,37.34
2022-10-09T12:00:57.484Z,37.58
2022-10-09T12:03:25.111Z,37.62
2022-10-09T12:05:51.583Z,36.92
2022-10-09T12:08:19.545Z,36.92
2022-10-09T12:10:46.691Z,37.31
2022-10-09T12:13:13.486Z,37.00
2022-10-09T12:15:39.878Z,36.61
2022-10-09T12:18:06.165Z,35.45
2022-10-09T12:20:32.702Z,35.98
2022-10-09T12:23:25.278Z,36.02
2022-10-09T12:25:45.271Z,36.46
2022-10-09T12:28:11.557Z,36.28
2022-10-09T12:30:37.893Z,35.91
2022-10-09T12:33:04.424Z,33.96
2022-10-09T12:35:30.737Z,34.70
2022-10-09T12:37:57.044Z,34.22
2022-10-09T12:40:23.574Z,34.05
2022-10-09T12:42:50.029Z,32.74
2022-10-09T12:45:16.739Z,34.83
2022-10-09T12:47:43.161Z,34.54
2022-10-09T12:50:09.432Z,33.57
2022-10-09T12:52:35.702Z,33.79
2022-10-09T12:55:02.156Z,33.52
2022-10-09T12:57:28.428Z,34.30
2022-10-09T12:59:55.749Z,33.87
2022-10-09T13:02:22.353Z,32.74
2022-10-09T13:04:49.769Z,34.06
2022-10-09T13:07:16.137Z,33.76
2022-10-09T13:09:42.654Z,32.47
2022-10-09T13:12:09.504Z,32.13
2022-10-09T13:14:35.938Z,33.22
2022-10-09T13:17:02.682Z,33.80
2022-10-09T13:19:28.985Z,33.92
2022-10-09T13:21:55.230Z,33.65
2022-10-09T13:24:22.274Z,33.71
2022-10-09T13:26:48.570Z,32.92
2022-10-09T13:29:16.243Z,32.42
2022-10-09T13:31:42.677Z,30.86
2022-10-09T13:34:09.026Z,31.17
2022-10-09T13:36:38.439Z,31.71
2022-10-09T13:39:05.022Z,32.08
2022-10-09T13:41:31.479Z,29.58
2022-10-09T13:43:57.733Z,32.79
2022-10-09T13:46:24.322Z,30.94
2022-10-09T13:48:50.934Z,32.07
2022-10-09T13:51:17.193Z,32.03
2022-10-09T13:53:43.629Z,31.62
2022-10-09T13:56:09.965Z,32.90
2022-10-09T13:58:36.262Z,31.77
2022-10-09T14:01:02.972Z,32.29
2022-10-09T14:03:29.309Z,31.90
2022-10-09T14:05:55.829Z,32.15
2022-10-09T14:08:22.568Z,30.86
2022-10-09T14:10:48.887Z,31.65
2022-10-09T14:13:15.549Z,32.54
2022-10-09T14:15:41.901Z,32.70
2022-10-09T14:18:08.261Z,32.18
2022-10-09T14:20:34.698Z,32.77
2022-10-09T14:23:01.201Z,32.70
2022-10-09T14:25:29.278Z,32.85
2022-10-09T14:27:55.626Z,31.34
2022-10-09T14:30:22.063Z,32.86
2022-10-09T14:32:48.702Z,33.77
2022-10-09T14:35:19.351Z,33.56
2022-10-09T14:37:48.302Z,32.69
2022-10-09T14:40:14.652Z,31.88
2022-10-09T14:42:41.250Z,32.87
2022-10-09T14:45:08.046Z,32.45
2022-10-09T14:47:34.530Z,32.61
2022-10-09T14:50:00.841Z,32.98
2022-10-09T14:52:27.295Z,31.97
2022-10-09T14:54:53.556Z,31.74
2022-10-09T14:57:20.372Z,31.88
2022-10-09T14:59:46.845Z,32.35
2022-10-09T15:02:13.313Z,32.08
2022-10-09T15:04:39.708Z,32.08
2022-10-09T15:07:06.277Z,31.88
2022-10-09T15:09:32.588Z,32.71
2022-10-09T15:14:25.392Z,32.46
2022-10-09T15:16:51.743Z,30.35
2022-10-09T15:19:18.109Z,31.78
2022-10-09T15:21:44.495Z,31.30
2022-10-09T15:24:10.815Z,31.05
2022-10-09T15:26:44.429Z,30.88
2022-10-09T15:29:10.838Z,30.71
2022-10-09T15:31:37.119Z,31.90
2022-10-09T15:34:03.512Z,31.77
2022-10-09T15:36:29.831Z,29.60
2022-10-09T15:38:56.082Z,29.49
2022-10-09T15:41:22.437Z,29.98
2022-10-09T15:43:49.597Z,33.05
2022-10-09T15:46:15.893Z,31.63
2022-10-09T15:48:42.235Z,31.11
2022-10-09T15:51:08.814Z,32.33
2022-10-09T15:53:37.363Z,32.40
2022-10-09T15:56:03.854Z,32.01
2022-10-09T15:58:30.295Z,32.77
2022-10-09T16:00:56.542Z,32.35
2022-10-09T16:03:25.954Z,31.31
2022-10-09T16:05:52.560Z,32.46
2022-10-09T16:08:18.894Z,33.15
2022-10-09T16:10:48.793Z,32.89
2022-10-09T16:13:15.873Z,32.15
2022-10-09T16:15:44.514Z,32.69
2022-10-09T16:18:10.806Z,31.49
2022-10-09T16:20:40.083Z,32.36
2022-10-09T16:23:06.585Z,32.59
2022-10-09T16:25:32.891Z,33.26
2022-10-09T16:27:59.758Z,32.78
2022-10-09T16:30:26.078Z,33.12
2022-10-09T16:32:52.866Z,33.67
2022-10-09T16:35:19.816Z,33.59
2022-10-09T16:37:46.192Z,33.72
2022-10-09T16:40:12.514Z,33.15
2022-10-09T16:42:39.157Z,33.54
2022-10-09T16:45:05.451Z,34.10
2022-10-09T16:47:31.773Z,34.31
2022-10-09T16:49:58.366Z,34.36
2022-10-09T16:52:24.639Z,34.32
2022-10-09T16:54:51.236Z,34.25
2022-10-09T16:57:17.640Z,34.38
2022-10-09T16:59:43.966Z,34.63
2022-10-09T17:02:10.720Z,34.67
2022-10-09T17:04:37.500Z,34.78
2022-10-09T17:07:03.904Z,34.58
2022-10-09T17:09:30.951Z,34.63
2022-10-09T17:11:57.697Z,34.31
2022-10-09T17:14:27.017Z,35.07
2022-10-09T17:16:53.337Z,35.18
2022-10-09T17:19:20.120Z,35.73
2022-10-09T17:21:54.198Z,35.86
2022-10-09T17:24:21.433Z,35.19
2022-10-09T17:26:47.939Z,36.44
2022-10-09T17:29:16.729Z,36.03
2022-10-09T17:31:43.290Z,35.71
2022-10-09T17:34:10.013Z,36.11
2022-10-09T17:36:36.789Z,36.41
2022-10-09T17:39:03.253Z,35.84
2022-10-09T17:41:29.653Z,36.70
2022-10-09T17:43:56.147Z,36.74
2022-10-09T17:46:22.668Z,36.69
2022-10-09T17:48:48.994Z,36.35
2022-10-09T17:51:15.770Z,36.46
2022-10-09T17:53:42.724Z,36.22
2022-10-09T17:56:09.218Z,36.14
2022-10-09T17:58:35.735Z,36.21
2022-10-09T18:01:02.718Z,37.43
2022-10-09T18:03:29.561Z,37.36
2022-10-09T18:05:59.196Z,37.61
2022-10-09T18:08:25.558Z,37.40
2022-10-09T18:10:52.900Z,36.86
2022-10-09T18:13:19.307Z,36.91
2022-10-09T18:15:46.111Z,36.96
2022-10-09T18:18:17.959Z,35.84
2022-10-09T18:20:44.489Z,36.63
2022-10-09T18:23:11.103Z,37.14
2022-10-09T18:25:41.206Z,36.97
2022-10-09T18:28:07.967Z,36.68
2022-10-09T18:30:34.785Z,35.94
2022-10-09T18:33:01.372Z,36.75
2022-10-09T18:35:27.727Z,36.30
2022-10-09T18:37:54.954Z,36.45
2022-10-09T18:40:21.679Z,36.85
2022-10-09T18:42:50.977Z,37.06
2022-10-09T18:45:20.575Z,36.17
2022-10-09T18:47:47.173Z,37.02
2022-10-09T18:50:14.026Z,36.63
2022-10-09T18:52:41.361Z,37.00
2022-10-09T18:55:10.059Z,37.07
2022-10-09T18:57:36.630Z,37.17
2022-10-09T19:00:03.711Z,37.10
2022-10-09T19:02:30.344Z,37.04
2022-10-09T19:04:56.843Z,37.44
2022-10-09T19:07:23.571Z,37.42
2022-10-09T19:09:54.934Z,37.92
2022-10-09T19:12:23.825Z,37.74
2022-10-09T19:14:50.948Z,37.86
2022-10-09T19:17:17.400Z,37.70
2022-10-09T19:19:45.851Z,37.73
2022-10-09T19:22:15.421Z,37.90
2022-10-09T19:24:43.862Z,37.41
2022-10-09T19:27:10.131Z,37.75
2022-10-09T19:29:36.487Z,37.71
2022-10-09T19:32:02.894Z,37.72
2022-10-09T19:34:29.525Z,37.79
2022-10-09T19:36:55.899Z,37.82
2022-10-09T19:39:22.261Z,37.80
2022-10-09T19:41:48.516Z,37.54
2022-10-09T19:44:14.777Z,38.09
2022-10-09T19:46:41.561Z,38.25
2022-10-09T19:49:08.444Z,38.09
2022-10-09T19:51:35.080Z,37.89
2022-10-09T19:54:01.694Z,38.16
2022-10-09T19:56:30.030Z,38.37
2022-10-09T19:58:56.416Z,37.79
2022-10-09T20:01:23.405Z,37.80
2022-10-09T20:03:49.764Z,38.89
2022-10-09T20:06:18.759Z,38.52
2022-10-09T20:08:45.356Z,38.67
2022-10-09T20:11:12.128Z,38.48
2022-10-09T20:13:38.522Z,38.81
2022-10-09T20:16:04.926Z,38.04
2022-10-09T20:18:31.274Z,38.46
2022-10-09T20:20:57.630Z,38.56
2022-10-09T20:23:24.191Z,38.58
2022-10-09T20:25:50.603Z,38.58
2022-10-09T20:28:17.437Z,38.19
2022-10-09T20:30:46.304Z,38.75
2022-10-09T20:33:12.719Z,38.57
2022-10-09T20:35:38.980Z,38.76
2022-10-09T20:38:05.450Z,38.03
2022-10-09T20:40:31.750Z,39.06
2022-10-09T20:42:58.155Z,38.81
2022-10-09T20:45:25.088Z,38.73
2022-10-09T20:47:51.593Z,38.89
2022-10-09T20:50:17.894Z,38.60
2022-10-09T20:52:44.262Z,38.91
2022-10-09T20:55:12.633Z,39.00
2022-10-09T20:57:38.973Z,38.73
2022-10-09T21:00:05.649Z,38.85
2022-10-09T21:02:32.190Z,38.98
2022-10-09T21:04:58.550Z,38.75
2022-10-09T21:07:25.004Z,38.85
2022-10-09T21:09:51.333Z,38.86
2022-10-09T21:12:17.691Z,38.96
2022-10-09T21:14:45.353Z,39.59
2022-10-09T21:17:12.174Z,39.55
2022-10-09T21:19:38.502Z,39.50
2022-10-09T21:22:04.960Z,39.72
2022-10-09T21:24:31.443Z,39.83
2022-10-09T21:26:57.776Z,39.74
2022-10-09T21:29:24.590Z,39.80
2022-10-09T21:31:51.034Z,39.50
2022-10-09T21:34:17.553Z,39.50
2022-10-09T21:37:08.502Z,39.76
2022-10-09T21:39:30.337Z,39.67
2022-10-09T21:41:57.182Z,39.74
2022-10-09T21:44:23.510Z,39.77
2022-10-09T21:46:49.843Z,39.82
2022-10-09T21:49:16.748Z,39.78
2022-10-09T21:51:43.301Z,39.79
2022-10-09T21:54:09.734Z,39.92
2022-10-09T21:56:36.134Z,39.88
2022-10-09T21:59:02.653Z,40.18
2022-10-09T22:01:28.998Z,40.29
2022-10-09T22:03:55.488Z,40.23
2022-10-09T22:06:21.904Z,40.29
2022-10-09T22:08:48.222Z,39.93
2022-10-09T22:11:14.980Z,40.01
2022-10-09T22:13:41.393Z,40.52
2022-10-09T22:16:07.750Z,40.65
2022-10-09T22:18:34.268Z,40.51
2022-10-09T22:21:00.759Z,40.58
2022-10-09T22:23:27.209Z,40.46
2022-10-09T22:25:53.519Z,40.40
2022-10-09T22:28:19.850Z,40.49
2022-10-09T22:30:46.891Z,40.45
2022-10-09T22:33:13.453Z,40.32
2022-10-09T22:35:39.793Z,40.36
2022-10-09T22:38:06.069Z,40.41
2022-10-09T22:40:32.719Z,40.54
2022-10-09T22:42:59.083Z,40.45
2022-10-09T22:45:25.501Z,40.44
2022-10-09T22:47:52.022Z,40.46
2022-10-09T22:50:18.351Z,40.62
2022-10-09T22:52:44.637Z,40.57
2022-10-09T22:55:11.036Z,40.65
2022-10-09T22:57:37.327Z,40.66
2022-10-09T23:00:03.836Z,40.74
2022-10-09T23:02:30.288Z,40.94
2022-10-09T23:04:56.589Z,40.89
2022-10-09T23:07:22.923Z,40.95
2022-10-09T23:09:49.510Z,40.84
2022-10-09T23:12:15.910Z,40.91
2022-10-09T23:14:42.263Z,41.12
2022-10-09T23:17:08.807Z,41.39
2022-10-09T23:19:35.132Z,41.20
2022-10-09T23:22:01.437Z,41.32
2022-10-09T23:24:27.936Z,41.25
2022-10-09T23:26:54.255Z,41.37
2022-10-09T23:29:20.597Z,41.28
2022-10-09T23:31:47.168Z,41.32
2022-10-09T23:34:13.970Z,41.47
2022-10-09T23:36:40.611Z,41.45
2022-10-09T23:39:07.310Z,41.35
2022-10-09T23:41:33.588Z,41.43
2022-10-09T23:43:59.873Z,41.88
2022-10-09T23:46:26.239Z,41.65
2022-10-09T23:48:52.592Z,42.09
2022-10-09T23:51:18.865Z,42.49
2022-10-09T23:53:45.251Z,42.18
2022-10-09T23:56:11.790Z,42.19
2022-10-09T23:58:38.066Z,42.35
